sensor_id;sensor_type;location;lat;lon;timestamp;pressure;altitude;pressure_sealevel;temperature;humidity
12219;BME280;6172;42.646;23.344;2023-07-29T00:01:13;94439.59;;;18.13;100.00
12219;BME280;6172;42.646;23.344;2023-07-29T00:03:39;94441.25;;;17.87;100.00
12219;BME280;6172;42.646;23.344;2023-07-29T00:06:06;94439.53;;;17.57;100.00
12219;BME280;6172;42.646;23.344;2023-07-29T00:08:35;94450.91;;;17.83;100.00
12219;BME280;6172;42.646;23.344;2023-07-29T00:11:01;94454.22;;;17.45;100.00
12219;BME280;6172;42.646;23.344;2023-07-29T00:13:28;94450.22;;;17.46;100.00
12219;BME280;6172;42.646;23.344;2023-07-29T00:15:55;94456.03;;;17.48;100.00
12219;BME280;6172;42.646;23.344;2023-07-29T00:18:22;94453.28;;;17.48;100.00
12219;BME280;6172;42.646;23.344;2023-07-29T00:20:49;94451.44;;;17.54;100.00
12219;BME280;6172;42.646;23.344;2023-07-29T00:23:17;94450.34;;;17.52;100.00
12219;BME280;6172;42.646;23.344;2023-07-29T00:25:48;94444.25;;;17.57;100.00
12219;BME280;6172;42.646;23.344;2023-07-29T00:28:15;94446.81;;;17.69;100.00
12219;BME280;6172;42.646;23.344;2023-07-29T00:30:42;94445.50;;;17.56;100.00
12219;BME280;6172;42.646;23.344;2023-07-29T00:33:09;94447.31;;;17.50;100.00
12219;BME280;6172;42.646;23.344;2023-07-29T00:35:35;94449.59;;;17.51;100.00
12219;BME280;6172;42.646;23.344;2023-07-29T00:38:02;94447.34;;;17.41;100.00
12219;BME280;6172;42.646;23.344;2023-07-29T00:40:29;94446.88;;;17.42;100.00
12219;BME280;6172;42.646;23.344;2023-07-29T00:42:58;94449.16;;;17.44;100.00
12219;BME280;6172;42.646;23.344;2023-07-29T00:45:26;94444.44;;;17.35;100.00
12219;BME280;6172;42.646;23.344;2023-07-29T00:47:55;94440.16;;;17.34;100.00
12219;BME280;6172;42.646;23.344;2023-07-29T00:50:22;94438.81;;;17.20;100.00
12219;BME280;6172;42.646;23.344;2023-07-29T00:52:50;94437.09;;;17.32;100.00
12219;BME280;6172;42.646;23.344;2023-07-29T00:55:17;94427.78;;;17.29;100.00
12219;BME280;6172;42.646;23.344;2023-07-29T00:57:44;94436.97;;;17.26;100.00
12219;BME280;6172;42.646;23.344;2023-07-29T01:00:15;94436.63;;;17.33;100.00
12219;BME280;6172;42.646;23.344;2023-07-29T01:02:42;94429.03;;;17.19;100.00
12219;BME280;6172;42.646;23.344;2023-07-29T01:05:12;94429.94;;;17.25;100.00
12219;BME280;6172;42.646;23.344;2023-07-29T01:07:44;94430.25;;;17.18;100.00
12219;BME280;6172;42.646;23.344;2023-07-29T01:10:19;94434.41;;;17.14;100.00
12219;BME280;6172;42.646;23.344;2023-07-29T01:12:54;94429.63;;;17.14;100.00
12219;BME280;6172;42.646;23.344;2023-07-29T01:15:32;94425.53;;;17.01;100.00
12219;BME280;6172;42.646;23.344;2023-07-29T01:18:04;94428.91;;;17.05;100.00
12219;BME280;6172;42.646;23.344;2023-07-29T01:20:33;94436.56;;;17.01;100.00
12219;BME280;6172;42.646;23.344;2023-07-29T01:23:02;94428.91;;;17.05;100.00
12219;BME280;6172;42.646;23.344;2023-07-29T01:25:30;94433.94;;;16.88;100.00
12219;BME280;6172;42.646;23.344;2023-07-29T01:27:57;94433.03;;;16.91;100.00
12219;BME280;6172;42.646;23.344;2023-07-29T01:30:30;94436.41;;;16.86;100.00
12219;BME280;6172;42.646;23.344;2023-07-29T01:33:00;94444.50;;;16.90;100.00
12219;BME280;6172;42.646;23.344;2023-07-29T01:35:33;94438.53;;;16.91;100.00
12219;BME280;6172;42.646;23.344;2023-07-29T01:38:07;94441.28;;;16.91;100.00
12219;BME280;6172;42.646;23.344;2023-07-29T01:40:40;94435.81;;;16.82;100.00
12219;BME280;6172;42.646;23.344;2023-07-29T01:43:08;94432.75;;;16.89;100.00
12219;BME280;6172;42.646;23.344;2023-07-29T01:45:36;94429.81;;;16.93;100.00
12219;BME280;6172;42.646;23.344;2023-07-29T01:48:04;94426.00;;;16.90;100.00
12219;BME280;6172;42.646;23.344;2023-07-29T01:50:31;94438.84;;;17.02;100.00
12219;BME280;6172;42.646;23.344;2023-07-29T01:52:58;94436.41;;;16.68;100.00
12219;BME280;6172;42.646;23.344;2023-07-29T01:55:25;94432.13;;;16.76;100.00
12219;BME280;6172;42.646;23.344;2023-07-29T01:57:57;94437.66;;;16.85;100.00
12219;BME280;6172;42.646;23.344;2023-07-29T02:00:24;94439.31;;;16.74;100.00
12219;BME280;6172;42.646;23.344;2023-07-29T02:02:51;94427.22;;;16.71;100.00
12219;BME280;6172;42.646;23.344;2023-07-29T02:05:18;94435.16;;;16.60;100.00
12219;BME280;6172;42.646;23.344;2023-07-29T02:07:45;94426.00;;;16.63;100.00
12219;BME280;6172;42.646;23.344;2023-07-29T02:10:12;94437.78;;;16.73;100.00
12219;BME280;6172;42.646;23.344;2023-07-29T02:12:39;94438.88;;;16.66;100.00
12219;BME280;6172;42.646;23.344;2023-07-29T02:15:08;94443.72;;;16.62;100.00
12219;BME280;6172;42.646;23.344;2023-07-29T02:17:35;94438.97;;;16.54;100.00
12219;BME280;6172;42.646;23.344;2023-07-29T02:20:02;94441.56;;;16.48;100.00
12219;BME280;6172;42.646;23.344;2023-07-29T02:22:30;94442.63;;;16.42;100.00
12219;BME280;6172;42.646;23.344;2023-07-29T02:24:56;94447.50;;;16.47;100.00
12219;BME280;6172;42.646;23.344;2023-07-29T02:27:23;94456.72;;;15.86;100.00
12219;BME280;6172;42.646;23.344;2023-07-29T02:29:52;94453.97;;;15.86;100.00
12219;BME280;6172;42.646;23.344;2023-07-29T02:32:21;94458.09;;;15.91;100.00
12219;BME280;6172;42.646;23.344;2023-07-29T02:34:48;94442.53;;;15.97;100.00
12219;BME280;6172;42.646;23.344;2023-07-29T02:37:15;94445.75;;;16.04;100.00
12219;BME280;6172;42.646;23.344;2023-07-29T02:39:42;94445.19;;;16.09;100.00
12219;BME280;6172;42.646;23.344;2023-07-29T02:42:09;94447.34;;;16.23;100.00
12219;BME280;6172;42.646;23.344;2023-07-29T02:44:36;94444.59;;;16.32;100.00
12219;BME280;6172;42.646;23.344;2023-07-29T02:47:03;94434.53;;;16.29;100.00
12219;BME280;6172;42.646;23.344;2023-07-29T02:49:31;94430.06;;;16.23;100.00
12219;BME280;6172;42.646;23.344;2023-07-29T02:51:58;94435.13;;;16.24;100.00
12219;BME280;6172;42.646;23.344;2023-07-29T02:54:25;94436.81;;;16.40;100.00
12219;BME280;6172;42.646;23.344;2023-07-29T02:56:53;94430.53;;;16.21;100.00
12219;BME280;6172;42.646;23.344;2023-07-29T02:59:20;94443.56;;;15.81;100.00
12219;BME280;6172;42.646;23.344;2023-07-29T03:01:48;94445.72;;;15.95;100.00
12219;BME280;6172;42.646;23.344;2023-07-29T03:04:17;94447.69;;;15.86;100.00
12219;BME280;6172;42.646;23.344;2023-07-29T03:06:46;94438.34;;;15.74;100.00
12219;BME280;6172;42.646;23.344;2023-07-29T03:09:13;94457.94;;;15.64;100.00
12219;BME280;6172;42.646;23.344;2023-07-29T03:11:40;94467.63;;;15.47;100.00
12219;BME280;6172;42.646;23.344;2023-07-29T03:14:08;94468.06;;;15.15;100.00
12219;BME280;6172;42.646;23.344;2023-07-29T03:16:35;94470.78;;;14.93;100.00
12219;BME280;6172;42.646;23.344;2023-07-29T03:19:02;94475.28;;;15.21;100.00
12219;BME280;6172;42.646;23.344;2023-07-29T03:21:29;94468.50;;;15.13;100.00
12219;BME280;6172;42.646;23.344;2023-07-29T03:23:57;94469.59;;;15.16;100.00
12219;BME280;6172;42.646;23.344;2023-07-29T03:26:24;94475.47;;;15.27;100.00
12219;BME280;6172;42.646;23.344;2023-07-29T03:28:51;94471.81;;;15.30;100.00
12219;BME280;6172;42.646;23.344;2023-07-29T03:31:18;94469.63;;;15.25;100.00
12219;BME280;6172;42.646;23.344;2023-07-29T03:33:45;94468.88;;;15.24;100.00
12219;BME280;6172;42.646;23.344;2023-07-29T03:36:12;94479.72;;;15.28;100.00
12219;BME280;6172;42.646;23.344;2023-07-29T03:38:39;94479.88;;;15.24;100.00
12219;BME280;6172;42.646;23.344;2023-07-29T03:41:09;94466.19;;;15.33;100.00
12219;BME280;6172;42.646;23.344;2023-07-29T03:43:36;94473.84;;;15.38;100.00
12219;BME280;6172;42.646;23.344;2023-07-29T03:46:02;94467.72;;;15.34;100.00
12219;BME280;6172;42.646;23.344;2023-07-29T03:48:30;94477.16;;;15.33;100.00
12219;BME280;6172;42.646;23.344;2023-07-29T03:50:57;94479.69;;;15.49;100.00
12219;BME280;6172;42.646;23.344;2023-07-29T03:53:24;94473.34;;;15.61;100.00
12219;BME280;6172;42.646;23.344;2023-07-29T03:55:51;94475.59;;;15.54;100.00
12219;BME280;6172;42.646;23.344;2023-07-29T03:58:19;94467.06;;;15.52;100.00
12219;BME280;6172;42.646;23.344;2023-07-29T04:00:46;94476.59;;;15.38;100.00
12219;BME280;6172;42.646;23.344;2023-07-29T04:03:13;94477.34;;;15.60;100.00
12219;BME280;6172;42.646;23.344;2023-07-29T04:05:41;94476.09;;;15.61;100.00
12219;BME280;6172;42.646;23.344;2023-07-29T04:08:08;94475.25;;;15.43;100.00
12219;BME280;6172;42.646;23.344;2023-07-29T04:10:35;94474.81;;;15.44;100.00
12219;BME280;6172;42.646;23.344;2023-07-29T04:13:03;94488.75;;;15.28;100.00
12219;BME280;6172;42.646;23.344;2023-07-29T04:15:31;94480.50;;;15.28;100.00
12219;BME280;6172;42.646;23.344;2023-07-29T04:17:58;94487.63;;;15.47;100.00
12219;BME280;6172;42.646;23.344;2023-07-29T04:20:25;94485.06;;;15.53;100.00
12219;BME280;6172;42.646;23.344;2023-07-29T04:22:52;94474.97;;;15.50;100.00
12219;BME280;6172;42.646;23.344;2023-07-29T04:25:19;94481.09;;;15.54;100.00
12219;BME280;6172;42.646;23.344;2023-07-29T04:27:46;94480.88;;;15.39;100.00
12219;BME280;6172;42.646;23.344;2023-07-29T04:30:13;94485.38;;;15.24;100.00
12219;BME280;6172;42.646;23.344;2023-07-29T04:32:41;94475.13;;;15.25;100.00
12219;BME280;6172;42.646;23.344;2023-07-29T04:35:10;94484.47;;;15.27;100.00
12219;BME280;6172;42.646;23.344;2023-07-29T04:37:37;94488.09;;;15.46;100.00
12219;BME280;6172;42.646;23.344;2023-07-29T04:40:05;94484.91;;;15.78;100.00
12219;BME280;6172;42.646;23.344;2023-07-29T04:42:32;94485.75;;;15.96;100.00
12219;BME280;6172;42.646;23.344;2023-07-29T04:44:59;94487.50;;;16.12;100.00
12219;BME280;6172;42.646;23.344;2023-07-29T04:47:26;94484.28;;;16.13;100.00
12219;BME280;6172;42.646;23.344;2023-07-29T04:49:54;94487.66;;;16.17;100.00
12219;BME280;6172;42.646;23.344;2023-07-29T04:52:21;94473.91;;;16.17;100.00
12219;BME280;6172;42.646;23.344;2023-07-29T04:54:48;94487.44;;;16.03;100.00
12219;BME280;6172;42.646;23.344;2023-07-29T04:57:15;94497.91;;;16.26;100.00
12219;BME280;6172;42.646;23.344;2023-07-29T04:59:41;94485.72;;;16.36;100.00
12219;BME280;6172;42.646;23.344;2023-07-29T05:02:10;94494.44;;;16.43;100.00
12219;BME280;6172;42.646;23.344;2023-07-29T05:04:37;94494.00;;;16.63;100.00
12219;BME280;6172;42.646;23.344;2023-07-29T05:07:05;94496.34;;;16.82;100.00
12219;BME280;6172;42.646;23.344;2023-07-29T05:09:33;94485.63;;;16.84;100.00
12219;BME280;6172;42.646;23.344;2023-07-29T05:12:00;94495.75;;;16.96;100.00
12219;BME280;6172;42.646;23.344;2023-07-29T05:14:32;94499.41;;;17.11;100.00
12219;BME280;6172;42.646;23.344;2023-07-29T05:16:58;94501.88;;;17.18;100.00
12219;BME280;6172;42.646;23.344;2023-07-29T05:19:26;94503.38;;;17.19;100.00
12219;BME280;6172;42.646;23.344;2023-07-29T05:21:53;94496.13;;;17.49;100.00
12219;BME280;6172;42.646;23.344;2023-07-29T05:24:21;94497.41;;;17.57;100.00
12219;BME280;6172;42.646;23.344;2023-07-29T05:26:48;94508.25;;;17.61;100.00
12219;BME280;6172;42.646;23.344;2023-07-29T05:29:15;94505.94;;;17.50;100.00
12219;BME280;6172;42.646;23.344;2023-07-29T05:31:42;94510.09;;;17.46;100.00
12219;BME280;6172;42.646;23.344;2023-07-29T05:34:09;94507.66;;;17.29;100.00
12219;BME280;6172;42.646;23.344;2023-07-29T05:36:36;94500.56;;;17.65;100.00
12219;BME280;6172;42.646;23.344;2023-07-29T05:39:03;94507.56;;;17.84;100.00
12219;BME280;6172;42.646;23.344;2023-07-29T05:41:34;94508.47;;;17.90;100.00
12219;BME280;6172;42.646;23.344;2023-07-29T05:44:02;94524.47;;;18.09;100.00
12219;BME280;6172;42.646;23.344;2023-07-29T05:46:29;94518.06;;;18.45;100.00
12219;BME280;6172;42.646;23.344;2023-07-29T05:48:56;94522.09;;;19.29;98.69
12219;BME280;6172;42.646;23.344;2023-07-29T05:51:23;94512.84;;;20.83;83.21
12219;BME280;6172;42.646;23.344;2023-07-29T05:53:50;94508.28;;;22.95;67.52
12219;BME280;6172;42.646;23.344;2023-07-29T05:56:17;94502.75;;;25.03;56.96
12219;BME280;6172;42.646;23.344;2023-07-29T05:58:45;94509.25;;;25.27;50.58
12219;BME280;6172;42.646;23.344;2023-07-29T06:01:12;94499.91;;;25.76;50.24
12219;BME280;6172;42.646;23.344;2023-07-29T06:03:39;94500.19;;;26.73;47.40
12219;BME280;6172;42.646;23.344;2023-07-29T06:06:06;94504.97;;;25.78;47.71
12219;BME280;6172;42.646;23.344;2023-07-29T06:08:35;94500.09;;;26.54;45.90
12219;BME280;6172;42.646;23.344;2023-07-29T06:11:02;94501.56;;;26.90;45.21
12219;BME280;6172;42.646;23.344;2023-07-29T06:13:31;94504.09;;;29.70;39.19
12219;BME280;6172;42.646;23.344;2023-07-29T06:16:00;94488.84;;;30.12;37.35
12219;BME280;6172;42.646;23.344;2023-07-29T06:18:26;94498.78;;;26.26;43.17
12219;BME280;6172;42.646;23.344;2023-07-29T06:20:53;94497.25;;;27.32;42.65
12219;BME280;6172;42.646;23.344;2023-07-29T06:23:20;94496.47;;;28.74;39.42
12219;BME280;6172;42.646;23.344;2023-07-29T06:25:47;94490.56;;;26.03;43.61
12219;BME280;6172;42.646;23.344;2023-07-29T06:28:13;94499.81;;;24.46;47.95
12219;BME280;6172;42.646;23.344;2023-07-29T06:30:40;94497.28;;;25.32;47.79
12219;BME280;6172;42.646;23.344;2023-07-29T06:33:09;94490.25;;;25.77;45.92
12219;BME280;6172;42.646;23.344;2023-07-29T06:35:35;94489.34;;;26.34;46.03
12219;BME280;6172;42.646;23.344;2023-07-29T06:38:02;94471.91;;;28.17;41.22
12219;BME280;6172;42.646;23.344;2023-07-29T06:40:29;94478.09;;;27.97;40.83
12219;BME280;6172;42.646;23.344;2023-07-29T06:42:56;94483.66;;;28.15;40.74
12219;BME280;6172;42.646;23.344;2023-07-29T06:45:23;94465.97;;;29.95;37.82
12219;BME280;6172;42.646;23.344;2023-07-29T06:47:50;94456.84;;;31.33;34.27
12219;BME280;6172;42.646;23.344;2023-07-29T06:50:18;94465.88;;;32.25;32.38
12219;BME280;6172;42.646;23.344;2023-07-29T06:52:45;94462.75;;;31.86;32.47
12219;BME280;6172;42.646;23.344;2023-07-29T06:55:12;94458.03;;;32.84;30.84
12219;BME280;6172;42.646;23.344;2023-07-29T06:57:39;94464.75;;;32.28;31.90
12219;BME280;6172;42.646;23.344;2023-07-29T07:00:07;94475.00;;;29.42;35.93
12219;BME280;6172;42.646;23.344;2023-07-29T07:02:34;94467.16;;;32.17;31.71
12219;BME280;6172;42.646;23.344;2023-07-29T07:05:01;94463.56;;;33.59;29.08
12219;BME280;6172;42.646;23.344;2023-07-29T07:07:32;94459.09;;;33.41;29.11
12219;BME280;6172;42.646;23.344;2023-07-29T07:09:59;94459.88;;;32.52;30.14
12219;BME280;6172;42.646;23.344;2023-07-29T07:12:25;94468.78;;;32.05;31.11
12219;BME280;6172;42.646;23.344;2023-07-29T07:14:52;94458.91;;;31.68;31.58
12219;BME280;6172;42.646;23.344;2023-07-29T07:17:19;94465.91;;;33.23;29.27
12219;BME280;6172;42.646;23.344;2023-07-29T07:19:46;94454.44;;;32.54;29.84
12219;BME280;6172;42.646;23.344;2023-07-29T07:22:13;94464.81;;;32.66;29.60
12219;BME280;6172;42.646;23.344;2023-07-29T07:24:41;94459.31;;;33.13;29.23
12219;BME280;6172;42.646;23.344;2023-07-29T07:27:08;94464.97;;;31.80;31.11
12219;BME280;6172;42.646;23.344;2023-07-29T07:29:35;94451.41;;;31.71;30.78
12219;BME280;6172;42.646;23.344;2023-07-29T07:32:02;94458.56;;;32.52;30.18
12219;BME280;6172;42.646;23.344;2023-07-29T07:34:29;94464.19;;;31.08;32.18
12219;BME280;6172;42.646;23.344;2023-07-29T07:36:55;94451.69;;;31.17;32.43
12219;BME280;6172;42.646;23.344;2023-07-29T07:39:22;94444.50;;;31.44;32.36
12219;BME280;6172;42.646;23.344;2023-07-29T07:41:50;94453.63;;;29.98;33.64
12219;BME280;6172;42.646;23.344;2023-07-29T07:44:17;94450.81;;;29.98;34.25
12219;BME280;6172;42.646;23.344;2023-07-29T07:46:45;94456.97;;;30.51;33.91
12219;BME280;6172;42.646;23.344;2023-07-29T07:49:11;94453.84;;;32.25;31.01
12219;BME280;6172;42.646;23.344;2023-07-29T07:51:39;94458.00;;;33.22;29.57
12219;BME280;6172;42.646;23.344;2023-07-29T07:54:06;94448.38;;;31.33;31.74
12219;BME280;6172;42.646;23.344;2023-07-29T07:56:32;94453.44;;;31.63;32.07
12219;BME280;6172;42.646;23.344;2023-07-29T07:59:01;94452.81;;;32.00;31.18
12219;BME280;6172;42.646;23.344;2023-07-29T08:01:27;94447.50;;;31.81;32.00
12219;BME280;6172;42.646;23.344;2023-07-29T08:03:54;94460.59;;;30.38;32.54
12219;BME280;6172;42.646;23.344;2023-07-29T08:06:21;94453.59;;;31.22;32.78
12219;BME280;6172;42.646;23.344;2023-07-29T08:08:48;94447.84;;;31.35;32.25
12219;BME280;6172;42.646;23.344;2023-07-29T08:11:15;94449.50;;;31.30;32.37
12219;BME280;6172;42.646;23.344;2023-07-29T08:13:41;94455.44;;;31.98;31.75
12219;BME280;6172;42.646;23.344;2023-07-29T08:16:10;94451.97;;;31.34;32.07
12219;BME280;6172;42.646;23.344;2023-07-29T08:18:37;94449.38;;;32.90;30.58
12219;BME280;6172;42.646;23.344;2023-07-29T08:21:04;94461.41;;;32.60;30.82
12219;BME280;6172;42.646;23.344;2023-07-29T08:23:32;94458.81;;;31.53;31.94
12219;BME280;6172;42.646;23.344;2023-07-29T08:26:00;94462.41;;;31.97;31.19
12219;BME280;6172;42.646;23.344;2023-07-29T08:28:30;94453.31;;;32.49;30.19
12219;BME280;6172;42.646;23.344;2023-07-29T08:30:58;94452.63;;;31.98;30.82
12219;BME280;6172;42.646;23.344;2023-07-29T08:33:26;94448.56;;;31.28;31.33
12219;BME280;6172;42.646;23.344;2023-07-29T08:35:53;94448.22;;;31.39;30.77
12219;BME280;6172;42.646;23.344;2023-07-29T08:38:20;94461.91;;;30.38;32.87
12219;BME280;6172;42.646;23.344;2023-07-29T08:40:52;94454.84;;;30.65;32.83
12219;BME280;6172;42.646;23.344;2023-07-29T08:43:22;94452.84;;;30.31;33.01
12219;BME280;6172;42.646;23.344;2023-07-29T08:45:54;94451.75;;;30.55;32.32
12219;BME280;6172;42.646;23.344;2023-07-29T08:48:26;94453.13;;;29.87;32.90
12219;BME280;6172;42.646;23.344;2023-07-29T08:50:57;94440.38;;;29.86;33.22
12219;BME280;6172;42.646;23.344;2023-07-29T08:53:27;94441.81;;;29.79;32.64
12219;BME280;6172;42.646;23.344;2023-07-29T08:55:54;94445.03;;;29.24;33.22
12219;BME280;6172;42.646;23.344;2023-07-29T08:58:21;94435.31;;;29.25;33.25
12219;BME280;6172;42.646;23.344;2023-07-29T09:00:49;94444.47;;;29.38;32.85
12219;BME280;6172;42.646;23.344;2023-07-29T09:03:16;94432.63;;;30.54;31.05
12219;BME280;6172;42.646;23.344;2023-07-29T09:05:43;94440.56;;;30.63;29.93
12219;BME280;6172;42.646;23.344;2023-07-29T09:08:12;94434.56;;;30.17;31.10
12219;BME280;6172;42.646;23.344;2023-07-29T09:10:39;94432.41;;;30.31;29.55
12219;BME280;6172;42.646;23.344;2023-07-29T09:13:07;94428.66;;;29.74;29.82
12219;BME280;6172;42.646;23.344;2023-07-29T09:15:36;94431.53;;;28.83;31.89
12219;BME280;6172;42.646;23.344;2023-07-29T09:18:10;94434.34;;;29.09;31.66
12219;BME280;6172;42.646;23.344;2023-07-29T09:20:38;94424.78;;;29.51;31.09
12219;BME280;6172;42.646;23.344;2023-07-29T09:23:07;94418.91;;;30.29;29.99
12219;BME280;6172;42.646;23.344;2023-07-29T09:25:36;94411.16;;;30.22;29.33
12219;BME280;6172;42.646;23.344;2023-07-29T09:28:09;94413.91;;;29.35;29.72
12219;BME280;6172;42.646;23.344;2023-07-29T09:30:38;94414.16;;;28.72;31.55
12219;BME280;6172;42.646;23.344;2023-07-29T09:33:05;94399.22;;;29.42;30.77
12219;BME280;6172;42.646;23.344;2023-07-29T09:35:33;94412.22;;;28.80;30.97
12219;BME280;6172;42.646;23.344;2023-07-29T09:38:00;94407.41;;;29.53;30.24
12219;BME280;6172;42.646;23.344;2023-07-29T09:40:26;94407.31;;;29.58;29.58
12219;BME280;6172;42.646;23.344;2023-07-29T09:42:55;94406.53;;;29.58;29.44
12219;BME280;6172;42.646;23.344;2023-07-29T09:45:22;94402.84;;;28.19;31.42
12219;BME280;6172;42.646;23.344;2023-07-29T09:47:50;94398.75;;;28.78;31.01
12219;BME280;6172;42.646;23.344;2023-07-29T09:50:17;94405.06;;;29.31;30.31
12219;BME280;6172;42.646;23.344;2023-07-29T09:52:44;94403.03;;;28.66;30.97
12219;BME280;6172;42.646;23.344;2023-07-29T09:55:12;94398.09;;;28.85;31.12
12219;BME280;6172;42.646;23.344;2023-07-29T09:57:40;94390.22;;;29.56;30.56
12219;BME280;6172;42.646;23.344;2023-07-29T10:00:11;94385.72;;;30.07;29.88
12219;BME280;6172;42.646;23.344;2023-07-29T10:02:39;94382.44;;;31.21;28.21
12219;BME280;6172;42.646;23.344;2023-07-29T10:05:07;94380.97;;;31.71;27.48
12219;BME280;6172;42.646;23.344;2023-07-29T10:07:36;94386.00;;;31.22;27.77
12219;BME280;6172;42.646;23.344;2023-07-29T10:10:04;94382.16;;;31.40;27.93
12219;BME280;6172;42.646;23.344;2023-07-29T10:12:31;94381.81;;;31.51;27.94
12219;BME280;6172;42.646;23.344;2023-07-29T10:15:02;94372.72;;;31.30;27.68
12219;BME280;6172;42.646;23.344;2023-07-29T10:17:31;94374.66;;;31.07;28.23
12219;BME280;6172;42.646;23.344;2023-07-29T10:20:00;94374.03;;;31.79;27.12
12219;BME280;6172;42.646;23.344;2023-07-29T10:22:33;94360.88;;;31.24;28.14
12219;BME280;6172;42.646;23.344;2023-07-29T10:25:04;94363.94;;;31.05;27.84
12219;BME280;6172;42.646;23.344;2023-07-29T10:27:35;94353.97;;;30.97;27.68
12219;BME280;6172;42.646;23.344;2023-07-29T10:30:06;94346.63;;;30.94;28.14
12219;BME280;6172;42.646;23.344;2023-07-29T10:32:34;94339.28;;;31.84;27.01
12219;BME280;6172;42.646;23.344;2023-07-29T10:35:01;94342.41;;;31.58;27.02
12219;BME280;6172;42.646;23.344;2023-07-29T10:37:28;94341.75;;;32.56;25.73
12219;BME280;6172;42.646;23.344;2023-07-29T10:39:55;94345.78;;;33.22;25.06
12219;BME280;6172;42.646;23.344;2023-07-29T10:42:24;94334.25;;;33.75;23.96
12219;BME280;6172;42.646;23.344;2023-07-29T10:44:52;94335.94;;;32.46;25.35
12219;BME280;6172;42.646;23.344;2023-07-29T10:47:23;94339.88;;;32.13;25.63
12219;BME280;6172;42.646;23.344;2023-07-29T10:49:53;94339.88;;;32.05;25.78
12219;BME280;6172;42.646;23.344;2023-07-29T10:52:31;94331.81;;;32.24;24.89
12219;BME280;6172;42.646;23.344;2023-07-29T10:54:58;94328.19;;;31.79;25.46
12219;BME280;6172;42.646;23.344;2023-07-29T10:57:32;94319.94;;;32.11;25.22
12219;BME280;6172;42.646;23.344;2023-07-29T10:59:59;94314.94;;;31.44;25.65
12219;BME280;6172;42.646;23.344;2023-07-29T11:02:31;94318.72;;;31.03;25.87
12219;BME280;6172;42.646;23.344;2023-07-29T11:05:00;94314.03;;;31.56;25.38
12219;BME280;6172;42.646;23.344;2023-07-29T11:07:31;94306.00;;;31.75;25.50
12219;BME280;6172;42.646;23.344;2023-07-29T11:10:02;94319.09;;;31.58;25.95
12219;BME280;6172;42.646;23.344;2023-07-29T11:12:37;94310.09;;;31.59;25.87
12219;BME280;6172;42.646;23.344;2023-07-29T11:15:12;94306.28;;;31.42;26.19
12219;BME280;6172;42.646;23.344;2023-07-29T11:17:41;94306.84;;;31.40;25.76
12219;BME280;6172;42.646;23.344;2023-07-29T11:20:11;94311.66;;;31.83;25.43
12219;BME280;6172;42.646;23.344;2023-07-29T11:22:39;94304.69;;;31.69;25.44
12219;BME280;6172;42.646;23.344;2023-07-29T11:25:08;94302.63;;;31.69;25.38
12219;BME280;6172;42.646;23.344;2023-07-29T11:27:35;94299.75;;;31.62;25.64
12219;BME280;6172;42.646;23.344;2023-07-29T11:30:03;94297.97;;;32.24;24.93
12219;BME280;6172;42.646;23.344;2023-07-29T11:32:32;94297.75;;;32.00;25.61
12219;BME280;6172;42.646;23.344;2023-07-29T11:35:02;94299.66;;;31.90;24.89
12219;BME280;6172;42.646;23.344;2023-07-29T11:37:30;94297.97;;;32.02;24.57
12219;BME280;6172;42.646;23.344;2023-07-29T11:39:59;94287.22;;;32.08;23.77
12219;BME280;6172;42.646;23.344;2023-07-29T11:42:26;94285.75;;;32.22;23.62
12219;BME280;6172;42.646;23.344;2023-07-29T11:44:53;94287.25;;;32.30;24.07
12219;BME280;6172;42.646;23.344;2023-07-29T11:47:20;94284.97;;;31.84;24.54
12219;BME280;6172;42.646;23.344;2023-07-29T11:49:46;94292.25;;;31.57;24.94
12219;BME280;6172;42.646;23.344;2023-07-29T11:52:13;94282.63;;;31.45;24.66
12219;BME280;6172;42.646;23.344;2023-07-29T11:54:47;94280.38;;;31.43;25.12
12219;BME280;6172;42.646;23.344;2023-07-29T11:57:14;94274.88;;;31.15;25.32
12219;BME280;6172;42.646;23.344;2023-07-29T11:59:42;94280.56;;;30.95;25.53
12219;BME280;6172;42.646;23.344;2023-07-29T12:02:11;94281.13;;;30.58;25.87
12219;BME280;6172;42.646;23.344;2023-07-29T12:04:39;94276.31;;;30.66;25.75
12219;BME280;6172;42.646;23.344;2023-07-29T12:07:07;94271.91;;;30.85;25.71
12219;BME280;6172;42.646;23.344;2023-07-29T12:09:34;94270.22;;;31.25;25.30
12219;BME280;6172;42.646;23.344;2023-07-29T12:12:04;94263.22;;;30.68;25.60
12219;BME280;6172;42.646;23.344;2023-07-29T12:14:31;94256.44;;;30.64;25.78
12219;BME280;6172;42.646;23.344;2023-07-29T12:17:00;94254.16;;;30.62;25.80
12219;BME280;6172;42.646;23.344;2023-07-29T12:19:31;94247.91;;;30.92;25.67
12219;BME280;6172;42.646;23.344;2023-07-29T12:21:58;94254.81;;;31.26;25.01
12219;BME280;6172;42.646;23.344;2023-07-29T12:24:25;94244.94;;;31.63;24.31
12219;BME280;6172;42.646;23.344;2023-07-29T12:26:52;94254.13;;;31.63;24.81
12219;BME280;6172;42.646;23.344;2023-07-29T12:29:20;94252.84;;;32.09;24.09
12219;BME280;6172;42.646;23.344;2023-07-29T12:31:47;94244.75;;;32.28;23.51
12219;BME280;6172;42.646;23.344;2023-07-29T12:34:18;94243.81;;;32.11;23.84
12219;BME280;6172;42.646;23.344;2023-07-29T12:36:46;94250.78;;;32.10;23.53
12219;BME280;6172;42.646;23.344;2023-07-29T12:39:18;94239.50;;;32.02;23.52
12219;BME280;6172;42.646;23.344;2023-07-29T12:41:44;94246.81;;;32.05;22.88
12219;BME280;6172;42.646;23.344;2023-07-29T12:44:11;94251.16;;;31.99;23.36
12219;BME280;6172;42.646;23.344;2023-07-29T12:46:40;94246.47;;;31.79;23.45
12219;BME280;6172;42.646;23.344;2023-07-29T12:49:07;94237.59;;;31.60;23.83
12219;BME280;6172;42.646;23.344;2023-07-29T12:51:34;94246.63;;;32.11;23.81
12219;BME280;6172;42.646;23.344;2023-07-29T12:54:01;94235.75;;;32.00;24.03
12219;BME280;6172;42.646;23.344;2023-07-29T12:56:29;94236.09;;;32.26;23.28
12219;BME280;6172;42.646;23.344;2023-07-29T12:58:56;94230.28;;;32.32;23.25